Time;durP1;ratioP1;P1;durP2;ratioP2;P2;SDS_P1;SDS_P2;PMS_P1;PMS_P2;Temp;Humidity;BMP_temperature;BMP_pressure;BME280_temperature;BME280_humidity;BME280_pressure;Samples;Min_cycle;Max_cycle;Signal;HPM_P1;HPM_P2
2023/12/11 00:00:42;;;;;;;17.85;3.47;;;;;;;;;;7368803;19;20308;-76
2023/12/11 00:03:07;;;;;;;17.42;4.28;;;;;;;;;;7368773;19;20058;-78
2023/12/11 00:05:32;;;;;;;22.47;4.03;;;;;;;;;;7368192;19;20026;-76
2023/12/11 00:07:58;;;;;;;22.23;3.60;;;;;;;;;;7371134;19;20263;-79
2023/12/11 00:10:23;;;;;;;14.43;3.35;;;;;;;;;;7360752;19;20002;-76
2023/12/11 00:12:48;;;;;;;22.40;4.32;;;;;;;;;;7360498;19;20739;-78
2023/12/11 00:15:13;;;;;;;20.07;3.87;;;;;;;;;;7363669;19;20443;-77
2023/12/11 00:17:38;;;;;;;19.03;4.13;;;;;;;;;;7369366;19;20248;-76
2023/12/11 00:20:04;;;;;;;23.57;4.17;;;;;;;;;;7368169;19;20247;-81
2023/12/11 00:22:29;;;;;;;17.75;3.80;;;;;;;;;;7367981;19;20251;-77
2023/12/11 00:24:54;;;;;;;15.93;3.65;;;;;;;;;;7365723;19;20551;-75
2023/12/11 00:27:19;;;;;;;17.17;3.90;;;;;;;;;;7367531;19;20306;-77
2023/12/11 00:29:45;;;;;;;19.85;3.97;;;;;;;;;;7369262;19;20021;-77
2023/12/11 00:32:10;;;;;;;14.73;3.70;;;;;;;;;;7366357;19;20002;-80
2023/12/11 00:34:35;;;;;;;15.02;3.55;;;;;;;;;;7368505;19;20247;-77
2023/12/11 00:37:00;;;;;;;16.80;3.80;;;;;;;;;;7368515;19;20007;-77
2023/12/11 00:39:25;;;;;;;20.48;3.63;;;;;;;;;;7365555;19;20502;-76
2023/12/11 00:41:51;;;;;;;15.07;3.83;;;;;;;;;;7365518;19;20614;-77
2023/12/11 00:44:16;;;;;;;17.98;3.13;;;;;;;;;;7362890;19;20629;-76
2023/12/11 00:46:41;;;;;;;14.50;3.57;;;;;;;;;;7366493;19;19999;-77
2023/12/11 00:49:07;;;;;;;15.73;3.70;;;;;;;;;;7363597;19;20684;-78
2023/12/11 00:51:32;;;;;;;16.17;3.30;;;;;;;;;;7368370;19;20335;-77
2023/12/11 00:53:57;;;;;;;15.20;3.33;;;;;;;;;;7367326;19;20018;-78
2023/12/11 00:56:22;;;;;;;16.48;4.07;;;;;;;;;;7362681;19;20010;-80
2023/12/11 00:58:47;;;;;;;16.17;3.37;;;;;;;;;;7369459;19;20241;-80
2023/12/11 01:01:13;;;;;;;18.03;3.80;;;;;;;;;;7366669;19;20267;-78
2023/12/11 01:03:38;;;;;;;21.20;3.95;;;;;;;;;;7368016;19;20280;-78
2023/12/11 01:06:03;;;;;;;18.83;3.75;;;;;;;;;;7364950;19;20113;-76
2023/12/11 01:08:48;;;;;;;15.70;3.78;;;;;;;;;;7365072;19;19999;-78
2023/12/11 01:11:13;;;;;;;24.38;4.50;;;;;;;;;;7344157;19;20083;-77
2023/12/11 01:13:38;;;;;;;21.38;3.75;;;;;;;;;;7363318;19;20062;-78
2023/12/11 01:16:04;;;;;;;25.37;4.87;;;;;;;;;;7364372;19;20101;-77
2023/12/11 01:18:29;;;;;;;23.65;4.63;;;;;;;;;;7367879;19;20232;-76
2023/12/11 01:20:54;;;;;;;20.70;4.63;;;;;;;;;;7368454;19;20007;-80
2023/12/11 01:23:19;;;;;;;27.35;4.90;;;;;;;;;;7365697;19;21200;-77
2023/12/11 01:25:44;;;;;;;26.57;4.57;;;;;;;;;;7356313;19;19995;-79
2023/12/11 01:28:10;;;;;;;32.83;5.78;;;;;;;;;;7367920;19;20610;-77
2023/12/11 01:30:35;;;;;;;24.30;5.22;;;;;;;;;;7367305;19;20473;-76
2023/12/11 01:33:01;;;;;;;26.63;5.05;;;;;;;;;;7367683;19;20015;-77
2023/12/11 01:35:27;;;;;;;23.50;4.40;;;;;;;;;;7364260;19;19995;-78
2023/12/11 01:37:52;;;;;;;22.58;4.70;;;;;;;;;;7361723;19;19999;-76
2023/12/11 01:40:17;;;;;;;27.67;5.20;;;;;;;;;;7359368;19;20013;-77
2023/12/11 01:42:42;;;;;;;24.17;4.77;;;;;;;;;;7369295;19;20428;-76
2023/12/11 01:45:07;;;;;;;20.88;4.57;;;;;;;;;;7363331;19;20258;-78
2023/12/11 01:47:33;;;;;;;25.48;4.78;;;;;;;;;;7362889;19;20291;-77
2023/12/11 01:49:58;;;;;;;27.60;5.70;;;;;;;;;;7360215;19;20006;-77
2023/12/11 01:52:23;;;;;;;25.15;5.47;;;;;;;;;;7362849;19;20267;-76
2023/12/11 01:54:49;;;;;;;31.65;5.65;;;;;;;;;;7360785;19;20075;-78
2023/12/11 01:57:14;;;;;;;23.57;5.63;;;;;;;;;;7366342;19;20627;-76
2023/12/11 01:59:39;;;;;;;29.48;5.22;;;;;;;;;;7366242;19;20344;-77
2023/12/11 02:02:04;;;;;;;28.20;5.75;;;;;;;;;;7366902;19;20382;-75
2023/12/11 02:04:30;;;;;;;28.73;5.93;;;;;;;;;;7361144;19;20003;-75
2023/12/11 02:06:56;;;;;;;25.17;5.38;;;;;;;;;;7364596;19;20521;-78
2023/12/11 02:09:21;;;;;;;31.48;5.57;;;;;;;;;;7349159;19;20074;-80
2023/12/11 02:11:46;;;;;;;37.28;6.82;;;;;;;;;;7289104;19;20428;-80
2023/12/11 02:14:11;;;;;;;35.70;5.45;;;;;;;;;;7283214;19;20298;-81
2023/12/11 02:16:37;;;;;;;24.33;4.50;;;;;;;;;;7302804;19;20233;-77
2023/12/11 02:19:02;;;;;;;31.73;5.37;;;;;;;;;;7306112;19;20410;-77
2023/12/11 02:21:27;;;;;;;27.73;5.25;;;;;;;;;;7294241;19;20632;-79
2023/12/11 02:24:11;;;;;;;31.73;5.03;;;;;;;;;;7290839;19;20003;-81
2023/12/11 02:26:36;;;;;;;30.08;5.45;;;;;;;;;;7288897;19;20421;-81
2023/12/11 02:29:01;;;;;;;34.53;5.43;;;;;;;;;;7294411;19;20482;-82
2023/12/11 02:31:26;;;;;;;33.17;5.55;;;;;;;;;;7296088;19;20348;-81
2023/12/11 02:33:52;;;;;;;27.20;4.90;;;;;;;;;;7295812;19;20019;-80
2023/12/11 02:36:17;;;;;;;28.43;5.93;;;;;;;;;;7288917;19;20795;-80
2023/12/11 02:38:42;;;;;;;33.03;6.25;;;;;;;;;;7291175;19;20725;-81
2023/12/11 02:41:07;;;;;;;35.45;6.20;;;;;;;;;;7288754;19;20158;-79
2023/12/11 02:43:33;;;;;;;33.30;5.65;;;;;;;;;;7290002;19;20144;-79
2023/12/11 02:45:58;;;;;;;32.83;5.60;;;;;;;;;;7290268;19;20435;-77
2023/12/11 02:48:24;;;;;;;24.67;5.00;;;;;;;;;;7293149;19;19999;-81
2023/12/11 02:50:49;;;;;;;27.42;5.07;;;;;;;;;;7293273;19;20263;-81
2023/12/11 02:53:14;;;;;;;26.70;5.32;;;;;;;;;;7293591;19;20635;-80
2023/12/11 02:55:39;;;;;;;24.17;5.40;;;;;;;;;;7288613;19;20358;-79
2023/12/11 02:58:05;;;;;;;27.23;5.03;;;;;;;;;;7284848;19;20852;-81
2023/12/11 03:00:30;;;;;;;26.80;5.85;;;;;;;;;;7285830;19;20006;-80
2023/12/11 03:02:56;;;;;;;25.80;5.10;;;;;;;;;;7282134;19;20393;-79
2023/12/11 03:05:21;;;;;;;32.03;5.32;;;;;;;;;;7282436;19;20006;-82
2023/12/11 03:07:47;;;;;;;22.85;5.32;;;;;;;;;;7291583;19;20006;-80
2023/12/11 03:10:12;;;;;;;27.42;4.35;;;;;;;;;;7324520;19;20005;-76
2023/12/11 03:12:37;;;;;;;34.25;5.40;;;;;;;;;;7358498;19;20074;-77
2023/12/11 03:15:04;;;;;;;29.77;5.60;;;;;;;;;;7362875;19;20555;-78
2023/12/11 03:17:29;;;;;;;29.75;5.15;;;;;;;;;;7361999;19;20248;-79
2023/12/11 03:19:54;;;;;;;25.98;5.53;;;;;;;;;;7358307;19;20553;-76
2023/12/11 03:22:19;;;;;;;28.20;5.40;;;;;;;;;;7363367;19;20133;-77
2023/12/11 03:24:46;;;;;;;23.63;4.63;;;;;;;;;;7360361;19;19999;-77
2023/12/11 03:27:11;;;;;;;30.00;6.07;;;;;;;;;;7370823;19;20272;-76
2023/12/11 03:29:36;;;;;;;33.10;6.70;;;;;;;;;;7364183;19;19991;-76
2023/12/11 03:32:02;;;;;;;32.97;5.78;;;;;;;;;;7366223;19;20266;-77
2023/12/11 03:34:27;;;;;;;31.27;5.78;;;;;;;;;;7363698;19;20097;-80
2023/12/11 03:36:52;;;;;;;24.77;4.90;;;;;;;;;;7369324;19;20569;-76
2023/12/11 03:39:18;;;;;;;30.42;6.85;;;;;;;;;;7363771;19;20254;-78
2023/12/11 03:41:43;;;;;;;26.75;5.80;;;;;;;;;;7369176;19;20355;-76
2023/12/11 03:44:09;;;;;;;32.28;5.85;;;;;;;;;;7369655;19;20259;-75
2023/12/11 03:46:34;;;;;;;21.45;5.10;;;;;;;;;;7369044;19;20031;-78
2023/12/11 03:48:59;;;;;;;28.77;5.22;;;;;;;;;;7359285;19;20235;-77
2023/12/11 03:51:24;;;;;;;24.60;4.87;;;;;;;;;;7367907;19;20707;-76
2023/12/11 03:53:49;;;;;;;33.38;5.90;;;;;;;;;;7365280;19;20266;-80
2023/12/11 03:56:14;;;;;;;23.42;4.43;;;;;;;;;;7368154;19;20305;-75
2023/12/11 03:58:39;;;;;;;23.30;4.82;;;;;;;;;;7366270;19;20005;-75
2023/12/11 04:01:05;;;;;;;23.45;4.65;;;;;;;;;;7366888;19;20658;-75
2023/12/11 04:03:31;;;;;;;23.30;4.88;;;;;;;;;;7363187;19;20336;-79
2023/12/11 04:05:56;;;;;;;21.70;4.78;;;;;;;;;;7367743;19;20010;-77
2023/12/11 04:08:21;;;;;;;25.98;5.10;;;;;;;;;;7366602;19;20011;-75
2023/12/11 04:10:47;;;;;;;40.50;5.80;;;;;;;;;;7365068;19;19997;-75
2023/12/11 04:13:13;;;;;;;27.37;5.80;;;;;;;;;;7366113;19;20622;-75
2023/12/11 04:15:38;;;;;;;27.13;5.60;;;;;;;;;;7363353;19;20259;-78
2023/12/11 04:18:03;;;;;;;21.90;5.68;;;;;;;;;;7367336;19;20524;-78
2023/12/11 04:20:28;;;;;;;22.52;4.55;;;;;;;;;;7367225;19;20231;-76
2023/12/11 04:22:53;;;;;;;25.15;4.63;;;;;;;;;;7366400;19;20162;-77
2023/12/11 04:25:19;;;;;;;29.47;4.97;;;;;;;;;;7368028;19;20423;-75
2023/12/11 04:27:44;;;;;;;19.92;3.95;;;;;;;;;;7366684;19;20712;-76
2023/12/11 04:30:09;;;;;;;23.35;3.97;;;;;;;;;;7369545;19;20294;-76
2023/12/11 04:32:34;;;;;;;20.20;3.60;;;;;;;;;;7361705;19;20267;-78
2023/12/11 04:34:59;;;;;;;17.83;4.85;;;;;;;;;;7366873;19;20336;-76
2023/12/11 04:37:25;;;;;;;23.17;3.53;;;;;;;;;;7365831;19;19998;-79
2023/12/11 04:39:50;;;;;;;18.33;3.93;;;;;;;;;;7360079;19;20781;-75
2023/12/11 04:42:15;;;;;;;16.10;3.47;;;;;;;;;;7358972;19;20251;-78
2023/12/11 04:44:40;;;;;;;14.90;3.75;;;;;;;;;;7362901;19;20759;-76
2023/12/11 04:47:05;;;;;;;20.88;4.55;;;;;;;;;;7370938;19;20604;-77
2023/12/11 04:49:30;;;;;;;17.35;3.45;;;;;;;;;;7358341;19;20393;-76
2023/12/11 04:51:56;;;;;;;14.48;3.03;;;;;;;;;;7357443;19;20003;-75
2023/12/11 04:54:21;;;;;;;20.70;3.55;;;;;;;;;;7356922;19;20599;-76
2023/12/11 04:56:46;;;;;;;19.60;3.85;;;;;;;;;;7365099;19;20289;-76
2023/12/11 04:59:11;;;;;;;15.32;2.95;;;;;;;;;;7369887;19;20542;-78
2023/12/11 05:01:36;;;;;;;16.40;3.47;;;;;;;;;;7363612;19;20008;-77
2023/12/11 05:04:01;;;;;;;18.98;4.45;;;;;;;;;;7363633;19;20231;-77
2023/12/11 05:06:27;;;;;;;22.50;3.50;;;;;;;;;;7368538;19;20387;-75
2023/12/11 05:08:52;;;;;;;18.15;3.10;;;;;;;;;;7364087;19;20402;-79
2023/12/11 05:11:17;;;;;;;22.10;3.63;;;;;;;;;;7363814;19;19991;-75
2023/12/11 05:13:42;;;;;;;19.35;4.38;;;;;;;;;;7363355;19;20260;-79
2023/12/11 05:16:07;;;;;;;19.80;3.80;;;;;;;;;;7366412;19;20223;-76
2023/12/11 05:18:33;;;;;;;17.95;3.22;;;;;;;;;;7358285;19;20235;-78
2023/12/11 05:20:58;;;;;;;16.80;3.50;;;;;;;;;;7357839;19;20002;-78
2023/12/11 05:23:23;;;;;;;21.67;3.10;;;;;;;;;;7361346;19;20098;-80
2023/12/11 05:25:48;;;;;;;17.20;3.27;;;;;;;;;;7347544;19;20001;-76
2023/12/11 05:28:13;;;;;;;20.77;4.40;;;;;;;;;;7361977;19;20244;-80
2023/12/11 05:30:39;;;;;;;15.60;3.13;;;;;;;;;;7357078;19;20234;-80
2023/12/11 05:33:04;;;;;;;13.52;3.47;;;;;;;;;;7359774;19;20692;-79
2023/12/11 05:35:29;;;;;;;15.77;3.23;;;;;;;;;;7357618;19;20002;-75
2023/12/11 05:37:55;;;;;;;17.13;3.20;;;;;;;;;;7358578;19;20243;-77
2023/12/11 05:40:21;;;;;;;18.52;4.10;;;;;;;;;;7363256;19;20845;-75
2023/12/11 05:42:46;;;;;;;22.20;4.80;;;;;;;;;;7355998;19;20050;-79
2023/12/11 05:45:11;;;;;;;17.15;3.13;;;;;;;;;;7362038;19;20228;-75
2023/12/11 05:47:36;;;;;;;16.85;3.85;;;;;;;;;;7359222;19;20260;-77
2023/12/11 05:50:01;;;;;;;15.17;3.73;;;;;;;;;;7356910;19;19999;-77
2023/12/11 05:52:27;;;;;;;24.52;4.15;;;;;;;;;;7360974;19;20256;-77
2023/12/11 05:54:52;;;;;;;18.67;3.95;;;;;;;;;;7350047;19;20003;-78
2023/12/11 05:57:17;;;;;;;18.50;3.20;;;;;;;;;;7360882;19;20020;-75
2023/12/11 05:59:42;;;;;;;18.58;4.15;;;;;;;;;;7343270;19;20544;-81
2023/12/11 06:02:08;;;;;;;17.80;3.42;;;;;;;;;;7363767;19;19999;-80
2023/12/11 06:04:33;;;;;;;18.27;4.25;;;;;;;;;;7365346;19;20010;-77
2023/12/11 06:06:58;;;;;;;20.27;4.47;;;;;;;;;;7363397;19;20340;-76
2023/12/11 06:09:23;;;;;;;19.48;3.30;;;;;;;;;;7365426;19;20603;-76
2023/12/11 06:11:48;;;;;;;19.60;4.10;;;;;;;;;;7350601;19;20757;-81
2023/12/11 06:14:13;;;;;;;17.33;3.70;;;;;;;;;;7340526;19;20727;-76
2023/12/11 06:16:38;;;;;;;22.83;3.87;;;;;;;;;;7359321;19;20246;-76
2023/12/11 06:19:07;;;;;;;16.15;3.47;;;;;;;;;;7355661;19;20418;-79
2023/12/11 06:21:32;;;;;;;21.80;4.22;;;;;;;;;;7354311;19;19999;-75
2023/12/11 06:23:57;;;;;;;19.80;3.70;;;;;;;;;;7354009;19;19994;-75
2023/12/11 06:26:29;;;;;;;19.17;3.87;;;;;;;;;;7362851;19;21104;-77
2023/12/11 06:28:56;;;;;;;24.85;4.82;;;;;;;;;;7360088;19;20268;-75
2023/12/11 06:31:21;;;;;;;20.70;4.38;;;;;;;;;;7362164;19;20005;-78
2023/12/11 06:33:46;;;;;;;20.60;4.93;;;;;;;;;;7353821;19;20014;-81
2023/12/11 06:36:12;;;;;;;21.17;4.22;;;;;;;;;;7362737;19;20739;-77
2023/12/11 06:38:37;;;;;;;27.45;3.90;;;;;;;;;;7366419;19;20020;-79
2023/12/11 06:41:02;;;;;;;23.77;4.63;;;;;;;;;;7364106;19;20559;-78
2023/12/11 06:43:27;;;;;;;19.38;4.20;;;;;;;;;;7362780;19;20317;-76
2023/12/11 06:45:52;;;;;;;23.17;4.20;;;;;;;;;;7373208;19;19999;-79
2023/12/11 06:48:18;;;;;;;20.43;4.43;;;;;;;;;;7370386;19;20390;-76
2023/12/11 06:50:43;;;;;;;20.90;3.70;;;;;;;;;;7368593;19;20270;-75
2023/12/11 06:53:08;;;;;;;23.58;4.55;;;;;;;;;;7364893;19;20335;-76
2023/12/11 06:55:35;;;;;;;20.10;3.93;;;;;;;;;;7365089;19;20406;-78
2023/12/11 06:58:00;;;;;;;18.85;3.97;;;;;;;;;;7361301;19;20251;-77
2023/12/11 07:00:26;;;;;;;19.13;4.43;;;;;;;;;;7353120;19;20044;-78
2023/12/11 07:02:51;;;;;;;21.73;4.18;;;;;;;;;;7349798;19;20315;-78
2023/12/11 07:05:17;;;;;;;18.93;4.60;;;;;;;;;;7353893;19;20440;-76
2023/12/11 07:07:42;;;;;;;27.80;4.93;;;;;;;;;;7357456;19;20228;-79
2023/12/11 07:10:07;;;;;;;25.88;5.72;;;;;;;;;;7345018;19;19999;-79
2023/12/11 07:12:33;;;;;;;23.42;5.03;;;;;;;;;;7353222;19;20576;-77
2023/12/11 07:14:58;;;;;;;20.08;3.85;;;;;;;;;;7350492;19;19999;-77
2023/12/11 07:17:23;;;;;;;21.63;4.90;;;;;;;;;;7360471;19;20030;-79
2023/12/11 07:19:48;;;;;;;24.40;5.22;;;;;;;;;;7362794;19;20015;-77
2023/12/11 07:22:13;;;;;;;19.57;4.20;;;;;;;;;;7336954;19;19998;-78
2023/12/11 07:24:39;;;;;;;27.35;4.80;;;;;;;;;;7343015;19;20251;-77
2023/12/11 07:27:04;;;;;;;22.42;4.38;;;;;;;;;;7346600;19;20558;-78
2023/12/11 07:29:29;;;;;;;21.00;4.47;;;;;;;;;;7365643;19;20013;-75
2023/12/11 07:31:54;;;;;;;27.58;5.43;;;;;;;;;;7341784;19;20536;-80
2023/12/11 07:34:21;;;;;;;21.15;4.40;;;;;;;;;;7317409;19;20578;-77
2023/12/11 07:36:48;;;;;;;26.67;4.55;;;;;;;;;;7359675;19;20023;-77
2023/12/11 07:39:13;;;;;;;22.45;4.63;;;;;;;;;;7356543;19;20014;-77
2023/12/11 07:41:39;;;;;;;24.73;5.15;;;;;;;;;;7363669;19;20360;-76
2023/12/11 07:44:04;;;;;;;30.87;5.07;;;;;;;;;;7365601;19;20313;-75
2023/12/11 07:46:30;;;;;;;21.38;4.63;;;;;;;;;;7361471;19;20307;-77
2023/12/11 07:48:55;;;;;;;25.55;4.90;;;;;;;;;;7352179;19;20077;-78
2023/12/11 07:51:21;;;;;;;29.88;4.75;;;;;;;;;;7363291;19;20069;-75
2023/12/11 07:53:47;;;;;;;27.42;4.57;;;;;;;;;;7369837;19;20003;-75
2023/12/11 07:56:22;;;;;;;26.55;5.00;;;;;;;;;;7360901;19;19994;-75
2023/12/11 07:58:47;;;;;;;31.75;5.10;;;;;;;;;;7370949;19;20042;-77
2023/12/11 08:01:12;;;;;;;23.52;3.75;;;;;;;;;;7362966;19;20006;-77
2023/12/11 08:03:38;;;;;;;25.90;5.23;;;;;;;;;;7366055;19;20026;-77
2023/12/11 08:06:03;;;;;;;21.67;3.97;;;;;;;;;;7355405;19;20257;-78
2023/12/11 08:08:28;;;;;;;24.65;4.72;;;;;;;;;;7364659;19;20007;-77
2023/12/11 08:10:53;;;;;;;21.38;4.38;;;;;;;;;;7357048;19;20009;-77
2023/12/11 08:13:19;;;;;;;25.13;4.15;;;;;;;;;;7359772;19;20009;-76
2023/12/11 08:15:45;;;;;;;30.95;4.65;;;;;;;;;;7364470;19;20754;-77
2023/12/11 08:18:10;;;;;;;28.90;4.38;;;;;;;;;;7364256;19;20570;-76
2023/12/11 08:20:35;;;;;;;25.87;4.53;;;;;;;;;;7368389;19;20007;-80
2023/12/11 08:23:00;;;;;;;30.25;5.40;;;;;;;;;;7368349;19;20316;-78
2023/12/11 08:25:26;;;;;;;25.40;4.65;;;;;;;;;;7363596;19;20014;-76
2023/12/11 08:27:51;;;;;;;26.13;4.55;;;;;;;;;;7365613;19;19998;-75
2023/12/11 08:30:16;;;;;;;23.35;4.28;;;;;;;;;;7362241;19;20074;-77
2023/12/11 08:32:42;;;;;;;27.65;4.63;;;;;;;;;;7359723;19;20616;-75
2023/12/11 08:35:07;;;;;;;25.57;4.90;;;;;;;;;;7365252;19;20079;-75
2023/12/11 08:37:33;;;;;;;22.08;4.65;;;;;;;;;;7364810;19;20763;-76
2023/12/11 08:39:58;;;;;;;26.20;5.10;;;;;;;;;;7354648;19;20542;-75
2023/12/11 08:42:23;;;;;;;32.63;4.57;;;;;;;;;;7357588;19;20489;-76
2023/12/11 08:44:48;;;;;;;24.58;4.90;;;;;;;;;;7367170;19;20595;-77
2023/12/11 08:47:14;;;;;;;25.95;4.47;;;;;;;;;;7364584;19;20243;-75
2023/12/11 08:49:39;;;;;;;23.05;4.70;;;;;;;;;;7352092;19;20797;-76
2023/12/11 08:52:04;;;;;;;27.67;4.25;;;;;;;;;;7363151;19;20350;-79
2023/12/11 08:54:29;;;;;;;26.85;4.60;;;;;;;;;;7355691;19;20554;-75
2023/12/11 08:56:54;;;;;;;25.25;4.68;;;;;;;;;;7368461;19;19995;-75
2023/12/11 08:59:20;;;;;;;29.67;5.30;;;;;;;;;;7361574;19;20451;-77
2023/12/11 09:01:46;;;;;;;23.20;4.53;;;;;;;;;;7359737;19;20255;-75
2023/12/11 09:04:11;;;;;;;19.73;4.05;;;;;;;;;;7360942;19;20017;-79
2023/12/11 09:06:36;;;;;;;24.35;4.45;;;;;;;;;;7360875;19;20417;-79
2023/12/11 09:09:02;;;;;;;23.50;4.47;;;;;;;;;;7360804;19;19999;-78
2023/12/11 09:11:27;;;;;;;21.58;4.53;;;;;;;;;;7351902;19;20728;-76
2023/12/11 09:13:53;;;;;;;20.27;4.13;;;;;;;;;;7366645;19;20003;-75
2023/12/11 09:16:18;;;;;;;20.93;4.23;;;;;;;;;;7359817;19;20002;-76
2023/12/11 09:18:43;;;;;;;22.42;3.67;;;;;;;;;;7363859;19;20836;-78
2023/12/11 09:21:08;;;;;;;25.40;4.03;;;;;;;;;;7345625;19;20698;-77
2023/12/11 09:23:33;;;;;;;18.88;4.32;;;;;;;;;;7362749;19;20239;-77
2023/12/11 09:25:59;;;;;;;19.17;3.37;;;;;;;;;;7360424;19;20003;-75
2023/12/11 09:28:24;;;;;;;23.93;4.60;;;;;;;;;;7359227;19;20251;-76
2023/12/11 09:30:49;;;;;;;19.75;4.78;;;;;;;;;;7342576;19;20693;-77
2023/12/11 09:33:14;;;;;;;24.50;4.45;;;;;;;;;;7356394;19;20007;-76
2023/12/11 09:35:39;;;;;;;20.00;4.63;;;;;;;;;;7361775;19;20010;-76
2023/12/11 09:38:04;;;;;;;19.38;4.30;;;;;;;;;;7347904;19;20263;-76
2023/12/11 09:40:30;;;;;;;21.25;3.85;;;;;;;;;;7353019;19;20062;-76
2023/12/11 09:42:55;;;;;;;19.10;3.75;;;;;;;;;;7361967;19;20244;-76
2023/12/11 09:45:21;;;;;;;22.15;4.15;;;;;;;;;;7357603;19;20413;-76
2023/12/11 09:47:48;;;;;;;20.17;3.95;;;;;;;;;;7364068;19;20006;-78
2023/12/11 09:50:13;;;;;;;24.83;5.00;;;;;;;;;;7348299;19;20112;-79
2023/12/11 09:52:39;;;;;;;25.52;4.60;;;;;;;;;;7362615;19;20107;-75
2023/12/11 09:55:05;;;;;;;21.42;4.20;;;;;;;;;;7358865;19;20054;-76
2023/12/11 09:57:30;;;;;;;29.95;5.00;;;;;;;;;;7360774;19;20101;-75
2023/12/11 09:59:56;;;;;;;27.15;4.65;;;;;;;;;;7359625;19;20568;-75
2023/12/11 10:02:25;;;;;;;28.35;5.68;;;;;;;;;;7344214;19;20013;-77
2023/12/11 10:05:04;;;;;;;18.92;4.00;;;;;;;;;;7359783;19;20007;-75
2023/12/11 10:07:33;;;;;;;25.73;4.80;;;;;;;;;;7311015;19;20039;-77
2023/12/11 10:10:16;;;;;;;21.27;4.93;;;;;;;;;;7357287;19;20558;-75
2023/12/11 10:12:42;;;;;;;21.02;4.10;;;;;;;;;;7363943;19;20002;-76
2023/12/11 10:15:08;;;;;;;28.30;5.18;;;;;;;;;;7361997;19;20003;-77
2023/12/11 10:17:33;;;;;;;23.48;5.00;;;;;;;;;;7353931;19;20468;-76
2023/12/11 10:19:58;;;;;;;23.13;4.57;;;;;;;;;;7355209;19;20027;-77
2023/12/11 10:22:27;;;;;;;22.50;4.05;;;;;;;;;;7354257;19;21355;-76
2023/12/11 10:24:53;;;;;;;18.27;4.57;;;;;;;;;;7355615;19;20078;-77
2023/12/11 10:27:21;;;;;;;25.90;4.53;;;;;;;;;;7356090;19;21033;-76
2023/12/11 10:29:46;;;;;;;17.33;3.65;;;;;;;;;;7361460;19;20010;-76
2023/12/11 10:32:11;;;;;;;25.40;4.17;;;;;;;;;;7354648;19;20005;-79
2023/12/11 10:34:45;;;;;;;22.02;4.53;;;;;;;;;;7349204;19;20276;-76
2023/12/11 10:37:11;;;;;;;;;;;;;;;;;;7350136;19;20363;-79
2023/12/11 10:39:36;;;;;;;31.48;4.90;;;;;;;;;;7347800;19;20420;-76
2023/12/11 10:42:23;;;;;;;25.30;4.77;;;;;;;;;;7339975;19;20002;-80
2023/12/11 10:44:48;;;;;;;17.55;3.55;;;;;;;;;;7341900;19;20327;-75
2023/12/11 10:47:13;;;;;;;27.05;4.32;;;;;;;;;;7359185;19;20519;-79
2023/12/11 10:49:39;;;;;;;22.33;4.28;;;;;;;;;;7348817;19;20014;-77
2023/12/11 10:52:04;;;;;;;27.58;4.75;;;;;;;;;;7355402;19;20003;-76
2023/12/11 10:54:30;;;;;;;23.38;4.75;;;;;;;;;;7354369;19;19999;-77
2023/12/11 10:56:56;;;;;;;24.63;5.15;;;;;;;;;;7356002;19;20111;-76
2023/12/11 10:59:21;;;;;;;17.70;3.85;;;;;;;;;;7356348;19;20441;-78
2023/12/11 11:01:47;;;;;;;60.90;6.15;;;;;;;;;;7363295;19;20002;-77
2023/12/11 11:04:13;;;;;;;24.27;4.47;;;;;;;;;;7358660;19;20334;-75
2023/12/11 11:06:54;;;;;;;25.10;5.13;;;;;;;;;;7358000;19;20002;-76
2023/12/11 11:09:24;;;;;;;23.85;3.88;;;;;;;;;;7360671;19;20014;-75
2023/12/11 11:11:52;;;;;;;24.58;4.25;;;;;;;;;;7363565;19;20067;-75
2023/12/11 11:14:20;;;;;;;24.13;4.97;;;;;;;;;;7358923;19;20011;-77
2023/12/11 11:16:51;;;;;;;21.75;4.22;;;;;;;;;;7352977;19;20030;-75
2023/12/11 11:19:16;;;;;;;29.52;4.22;;;;;;;;;;7362723;19;20070;-76
2023/12/11 11:21:57;;;;;;;18.77;3.90;;;;;;;;;;7348460;19;20644;-74
2023/12/11 11:24:28;;;;;;;19.90;3.83;;;;;;;;;;7353184;19;20248;-77
2023/12/11 11:26:53;;;;;;;22.70;4.07;;;;;;;;;;7365543;19;20029;-77
2023/12/11 11:29:37;;;;;;;21.03;3.83;;;;;;;;;;7360374;19;20023;-77
2023/12/11 11:32:02;;;;;;;18.13;3.95;;;;;;;;;;7357122;19;20261;-77
2023/12/11 11:34:40;;;;;;;21.25;4.32;;;;;;;;;;7365779;19;20062;-76
2023/12/11 11:37:05;;;;;;;23.50;4.78;;;;;;;;;;7366907;19;20610;-75
2023/12/11 11:39:54;;;;;;;24.77;4.45;;;;;;;;;;7362766;19;20002;-77
2023/12/11 11:42:19;;;;;;;20.40;4.07;;;;;;;;;;7369494;19;20023;-75
2023/12/11 11:44:45;;;;;;;24.50;4.13;;;;;;;;;;7363270;19;20251;-75
2023/12/11 11:47:19;;;;;;;20.42;4.13;;;;;;;;;;7342340;19;20363;-78
2023/12/11 11:49:44;;;;;;;20.33;3.38;;;;;;;;;;7357487;19;20002;-76
2023/12/11 11:52:11;;;;;;;20.73;3.53;;;;;;;;;;7359354;19;20309;-76
2023/12/11 11:54:37;;;;;;;16.60;3.25;;;;;;;;;;7347502;19;20244;-76
2023/12/11 11:57:03;;;;;;;16.83;3.40;;;;;;;;;;7343975;19;20520;-77
2023/12/11 11:59:28;;;;;;;18.70;2.90;;;;;;;;;;7332701;19;20731;-77
2023/12/11 12:01:55;;;;;;;13.25;3.13;;;;;;;;;;7341778;19;20025;-77
2023/12/11 12:04:29;;;;;;;17.38;3.08;;;;;;;;;;7348225;19;20538;-78
2023/12/11 12:06:55;;;;;;;12.73;2.88;;;;;;;;;;7340961;19;20459;-77
2023/12/11 12:09:21;;;;;;;11.50;3.20;;;;;;;;;;7355663;19;20011;-74
2023/12/11 12:11:46;;;;;;;17.98;3.20;;;;;;;;;;7351361;19;20369;-75
2023/12/11 12:14:14;;;;;;;15.43;2.95;;;;;;;;;;7333066;19;20325;-74
2023/12/11 12:16:39;;;;;;;15.82;2.70;;;;;;;;;;7307946;19;20436;-76
2023/12/11 12:19:05;;;;;;;15.50;2.40;;;;;;;;;;7347224;19;20005;-78
2023/12/11 12:21:31;;;;;;;14.00;2.67;;;;;;;;;;7350278;19;20371;-77
2023/12/11 12:24:00;;;;;;;11.68;2.42;;;;;;;;;;7352497;19;20054;-75
2023/12/11 12:26:26;;;;;;;13.65;2.65;;;;;;;;;;7349339;19;20100;-77
2023/12/11 12:28:51;;;;;;;14.57;2.85;;;;;;;;;;7362811;19;20074;-75
2023/12/11 12:31:16;;;;;;;14.52;2.80;;;;;;;;;;7360953;19;20007;-79
2023/12/11 12:33:41;;;;;;;9.90;2.78;;;;;;;;;;7355050;19;20006;-76
2023/12/11 12:36:07;;;;;;;19.42;3.10;;;;;;;;;;7326480;19;20134;-78
2023/12/11 12:38:32;;;;;;;16.08;2.47;;;;;;;;;;7356947;19;20010;-77
2023/12/11 12:40:57;;;;;;;12.65;2.70;;;;;;;;;;7341692;19;20911;-80
2023/12/11 12:43:24;;;;;;;13.32;2.35;;;;;;;;;;7349965;19;20112;-75
2023/12/11 12:45:49;;;;;;;13.82;2.50;;;;;;;;;;7357313;19;20471;-80
2023/12/11 12:48:14;;;;;;;16.30;2.63;;;;;;;;;;7347892;19;20026;-78
2023/12/11 12:50:39;;;;;;;17.98;3.17;;;;;;;;;;7355666;19;20247;-78
2023/12/11 12:53:13;;;;;;;12.87;2.67;;;;;;;;;;7361488;19;19998;-76
2023/12/11 12:55:41;;;;;;;17.70;2.50;;;;;;;;;;7356750;19;20844;-79
2023/12/11 12:58:07;;;;;;;14.65;2.75;;;;;;;;;;7366986;19;20326;-76
2023/12/11 13:00:35;;;;;;;18.20;3.30;;;;;;;;;;7363443;19;20313;-76
2023/12/11 13:03:07;;;;;;;16.35;3.00;;;;;;;;;;7364538;19;20009;-79
2023/12/11 13:05:39;;;;;;;12.20;2.97;;;;;;;;;;7364447;19;20042;-77
2023/12/11 13:08:04;;;;;;;15.57;3.03;;;;;;;;;;7368042;19;19998;-76
2023/12/11 13:10:29;;;;;;;17.45;3.50;;;;;;;;;;7363751;19;20428;-75
2023/12/11 13:12:54;;;;;;;17.63;3.45;;;;;;;;;;7364774;19;20574;-75
2023/12/11 13:15:19;;;;;;;15.75;3.17;;;;;;;;;;7360530;19;20674;-76
2023/12/11 13:17:50;;;;;;;17.03;3.07;;;;;;;;;;7361505;19;20238;-75
2023/12/11 13:20:15;;;;;;;12.55;2.47;;;;;;;;;;7363350;19;20302;-78
2023/12/11 13:22:40;;;;;;;22.63;3.53;;;;;;;;;;7354148;19;20429;-76
2023/12/11 13:25:05;;;;;;;17.05;2.60;;;;;;;;;;7363071;19;20279;-77
2023/12/11 13:27:31;;;;;;;18.15;3.42;;;;;;;;;;7363472;19;19990;-74
2023/12/11 13:29:56;;;;;;;20.30;3.75;;;;;;;;;;7364692;19;20407;-75
2023/12/11 13:32:21;;;;;;;22.52;3.60;;;;;;;;;;7354143;19;20014;-78
2023/12/11 13:34:46;;;;;;;16.65;3.53;;;;;;;;;;7360916;19;20009;-77
2023/12/11 13:37:11;;;;;;;20.80;3.47;;;;;;;;;;7367620;19;19994;-76
2023/12/11 13:39:36;;;;;;;13.90;3.23;;;;;;;;;;7364207;19;20649;-76
2023/12/11 13:42:02;;;;;;;17.00;2.95;;;;;;;;;;7365228;19;20256;-77
2023/12/11 13:44:27;;;;;;;17.83;2.90;;;;;;;;;;7367270;19;20327;-78
2023/12/11 13:46:52;;;;;;;14.32;3.08;;;;;;;;;;7363181;19;20595;-76
2023/12/11 13:49:17;;;;;;;22.40;4.03;;;;;;;;;;7358255;19;20461;-77
2023/12/11 13:51:43;;;;;;;15.57;3.63;;;;;;;;;;7362653;19;20726;-76
2023/12/11 13:54:08;;;;;;;15.93;3.67;;;;;;;;;;7356144;19;20769;-76
2023/12/11 13:56:33;;;;;;;18.07;3.77;;;;;;;;;;7365804;19;19995;-77
2023/12/11 13:58:58;;;;;;;19.50;3.57;;;;;;;;;;7363078;19;20227;-75
2023/12/11 14:01:23;;;;;;;14.30;3.85;;;;;;;;;;7364661;19;20298;-77
2023/12/11 14:03:49;;;;;;;25.33;4.30;;;;;;;;;;7358901;19;20036;-76
2023/12/11 14:06:14;;;;;;;21.20;3.80;;;;;;;;;;7359540;19;20250;-76
2023/12/11 14:08:39;;;;;;;22.45;3.17;;;;;;;;;;7359745;19;21015;-75
2023/12/11 14:11:05;;;;;;;26.88;4.45;;;;;;;;;;7357266;19;20010;-79
2023/12/11 14:13:30;;;;;;;13.02;3.17;;;;;;;;;;7362007;19;20476;-75
2023/12/11 14:15:55;;;;;;;26.83;3.85;;;;;;;;;;7362912;19;19998;-76
2023/12/11 14:18:21;;;;;;;11.05;2.38;;;;;;;;;;7365980;19;20006;-77
2023/12/11 14:20:47;;;;;;;14.48;2.80;;;;;;;;;;7355946;19;20023;-78
2023/12/11 14:23:12;;;;;;;12.60;2.97;;;;;;;;;;7364516;19;19998;-76